Time;durP1;ratioP1;P1;durP2;ratioP2;P2;SDS_P1;SDS_P2;PMS_P1;PMS_P2;Temp;Humidity;BMP_temperature;BMP_pressure;BME280_temperature;BME280_humidity;BME280_pressure;Samples;Min_cycle;Max_cycle;Signal;HPM_P1;HPM_P2
2022/05/20 00:02:17;;;;;;;8.57;3.70;;;;;;;16.54;100.00;100862.94;5070644;28;20177;-71
2022/05/20 00:04:43;;;;;;;3.33;2.67;;;;;;;16.57;100.00;100857.53;5070698;28;20273;-71
2022/05/20 00:07:09;;;;;;;5.53;5.10;;;;;;;16.58;100.00;100859.16;5070833;28;20578;-71
2022/05/20 00:09:36;;;;;;;7.40;6.90;;;;;;;16.57;100.00;100854.78;5070764;28;20171;-72
2022/05/20 00:12:02;;;;;;;2.90;2.70;;;;;;;16.56;100.00;100863.41;5070861;28;20174;-71
2022/05/20 00:14:27;;;;;;;6.00;5.60;;;;;;;16.50;100.00;100859.28;5070784;28;20178;-71
2022/05/20 00:16:52;;;;;;;2.87;2.67;;;;;;;16.43;100.00;100856.25;5071589;28;20174;-71
2022/05/20 00:19:18;;;;;;;4.20;3.87;;;;;;;16.41;100.00;100845.56;5074685;28;20190;-72
2022/05/20 00:21:43;;;;;;;5.63;5.23;;;;;;;16.36;100.00;100840.28;5074633;28;20175;-71
2022/05/20 00:24:09;;;;;;;4.30;4.00;;;;;;;16.33;100.00;100840.94;5072991;28;20202;-72
2022/05/20 00:26:34;;;;;;;7.13;6.43;;;;;;;16.33;100.00;100844.50;5074026;28;20171;-72
2022/05/20 00:28:59;;;;;;;9.77;9.07;;;;;;;16.31;100.00;100843.22;5072872;28;20669;-71
2022/05/20 00:31:26;;;;;;;9.17;8.33;;;;;;;16.31;100.00;100835.75;5074624;28;20186;-72
2022/05/20 00:33:52;;;;;;;6.07;5.67;;;;;;;16.34;100.00;100839.78;5074001;28;20622;-72
2022/05/20 00:36:18;;;;;;;11.33;9.97;;;;;;;16.34;100.00;100843.34;5074169;28;20185;-71
2022/05/20 00:38:44;;;;;;;8.63;8.03;;;;;;;16.35;100.00;100844.19;5073951;28;20232;-72
2022/05/20 00:41:10;;;;;;;5.73;5.33;;;;;;;16.33;100.00;100836.22;5074117;28;20187;-71
2022/05/20 00:43:42;;;;;;;5.77;5.37;;;;;;;16.34;100.00;100846.09;5073900;28;20263;-71
2022/05/20 00:46:21;;;;;;;3.13;2.93;;;;;;;16.28;100.00;100846.66;5074063;28;20538;-71
2022/05/20 00:48:50;;;;;;;9.77;9.07;;;;;;;16.25;100.00;100847.34;5073709;28;20181;-72
2022/05/20 00:51:27;;;;;;;9.13;8.43;;;;;;;16.22;100.00;100848.03;5073693;28;20204;-72
2022/05/20 00:54:01;;;;;;;13.23;7.30;;;;;;;16.23;100.00;100849.66;5073736;28;20213;-71
2022/05/20 00:56:34;;;;;;;9.23;8.60;;;;;;;16.27;100.00;100854.13;5073844;28;20224;-71
2022/05/20 00:59:00;;;;;;;8.00;4.57;;;;;;;16.25;100.00;100847.34;5073638;28;20200;-71
2022/05/20 01:01:28;;;;;;;6.43;5.93;;;;;;;16.26;100.00;100843.44;5073705;28;20178;-71
2022/05/20 01:03:55;;;;;;;10.17;7.57;;;;;;;16.26;100.00;100837.94;5073486;28;20198;-72
2022/05/20 01:06:20;;;;;;;3.53;3.33;;;;;;;16.25;100.00;100848.16;5073661;28;20186;-71
2022/05/20 01:08:46;;;;;;;8.73;7.87;;;;;;;16.25;100.00;100841.84;5073367;28;20257;-73
2022/05/20 01:11:11;;;;;;;4.90;4.57;;;;;;;16.23;100.00;100844.94;5070422;28;20183;-71
2022/05/20 01:13:38;;;;;;;5.20;4.80;;;;;;;16.21;100.00;100843.66;5069549;28;20210;-71
2022/05/20 01:16:08;;;;;;;7.77;7.17;;;;;;;16.20;100.00;100844.78;5071953;28;20185;-72
2022/05/20 01:18:36;;;;;;;4.97;4.17;;;;;;;16.17;100.00;100845.47;5072853;28;20170;-71
2022/05/20 01:21:03;;;;;;;3.60;3.17;;;;;;;16.14;100.00;100852.47;5073436;28;20178;-71
2022/05/20 01:23:29;;;;;;;4.30;4.00;;;;;;;16.11;100.00;100852.34;5073278;28;20300;-71
2022/05/20 01:25:57;;;;;;;5.33;5.00;;;;;;;16.09;100.00;100852.69;5073419;28;20182;-71
2022/05/20 01:28:24;;;;;;;6.77;5.40;;;;;;;16.05;100.00;100863.56;5073047;28;20174;-71
2022/05/20 01:30:53;;;;;;;8.13;7.53;;;;;;;16.08;100.00;100853.03;5073242;28;20174;-71
2022/05/20 01:33:31;;;;;;;3.07;2.87;;;;;;;16.08;100.00;100853.03;5073023;28;20212;-71
2022/05/20 01:35:58;;;;;;;5.17;4.90;;;;;;;16.02;100.00;100847.72;5073167;28;20194;-71
2022/05/20 01:38:23;;;;;;;1.73;1.63;;;;;;;16.01;100.00;100857.13;5072968;28;20182;-71
2022/05/20 01:40:53;;;;;;;4.07;3.17;;;;;;;16.00;100.00;100855.50;5072954;28;20171;-71
2022/05/20 01:43:33;;;;;;;2.77;2.67;;;;;;;16.01;100.00;100851.63;5072494;28;20642;-72
2022/05/20 01:46:30;;;;;;;5.03;4.00;;;;;;;16.04;100.00;100858.41;5072945;28;20258;-71
2022/05/20 01:49:17;;;;;;;5.80;5.40;;;;;;;16.05;100.00;100854.50;5072582;28;20450;-72
2022/05/20 01:52:01;;;;;;;5.20;4.70;;;;;;;16.06;100.00;100851.44;5072611;28;20175;-72
2022/05/20 01:54:32;;;;;;;8.40;7.60;;;;;;;16.06;100.00;100856.94;5072973;28;20199;-71
2022/05/20 01:57:38;;;;;;;0.73;0.73;;;;;;;16.06;100.00;100867.16;5072772;28;20163;-72
2022/05/20 02:00:14;;;;;;;2.20;2.10;;;;;;;16.02;100.00;100868.97;5049132;28;20561;-72
2022/05/20 02:02:47;;;;;;;0.43;0.20;;;;;;;15.97;100.00;100875.50;5072492;28;20241;-73
2022/05/20 02:05:37;;;;;;;4.93;4.63;;;;;;;15.92;100.00;100872.16;5072211;28;20193;-72
2022/05/20 02:08:12;;;;;;;1.47;1.47;;;;;;;15.82;100.00;100864.28;5072027;28;20158;-71
2022/05/20 02:10:44;;;;;;;2.70;2.53;;;;;;;15.69;100.00;100863.41;5072563;28;20580;-72
2022/05/20 02:13:13;;;;;;;2.67;2.47;;;;;;;15.58;100.00;100870.41;5072200;28;20684;-71
2022/05/20 02:15:47;;;;;;;1.50;1.50;;;;;;;15.46;100.00;100866.41;5072162;28;20205;-71
2022/05/20 02:18:19;;;;;;;2.83;2.70;;;;;;;15.41;100.00;100861.13;5071908;28;20257;-72
2022/05/20 02:20:48;;;;;;;4.63;4.33;;;;;;;15.35;100.00;100862.47;5072111;28;20182;-72
2022/05/20 02:23:31;;;;;;;6.40;1.83;;;;;;;15.33;100.00;100867.47;5071895;28;20240;-71
2022/05/20 02:26:02;;;;;;;5.97;5.57;;;;;;;15.31;100.00;100871.69;5071999;28;20161;-72
2022/05/20 02:28:34;;;;;;;4.90;4.60;;;;;;;15.29;100.00;100874.78;5072150;28;20554;-71
2022/05/20 02:30:59;;;;;;;1.03;1.03;;;;;;;15.27;100.00;100868.00;5072103;28;20174;-71
2022/05/20 02:33:26;;;;;;;1.57;1.47;;;;;;;15.24;100.00;100869.47;5071691;28;20232;-72
2022/05/20 02:36:00;;;;;;;0.60;0.60;;;;;;;15.18;100.00;100868.84;5071785;28;20174;-71
2022/05/20 02:38:26;;;;;;;0.50;0.50;;;;;;;15.11;100.00;100865.03;5071334;28;20162;-72
2022/05/20 02:40:52;;;;;;;0.57;0.57;;;;;;;15.06;100.00;100859.72;5071382;28;20703;-71
2022/05/20 02:43:19;;;;;;;1.23;1.23;;;;;;;14.99;100.00;100853.91;5071354;28;20217;-72
2022/05/20 02:45:46;;;;;;;0.60;0.60;;;;;;;14.95;100.00;100856.50;5071718;28;20174;-72
2022/05/20 02:48:14;;;;;;;0.00;0.00;;;;;;;14.88;100.00;100862.50;5070541;28;20178;-71
2022/05/20 02:50:39;;;;;;;2.23;1.13;;;;;;;14.85;100.00;100865.94;5072115;28;20167;-71
2022/05/20 02:53:05;;;;;;;0.10;0.10;;;;;;;14.84;100.00;100875.31;5072827;28;20227;-71
2022/05/20 02:55:30;;;;;;;0.97;0.80;;;;;;;14.78;100.00;100882.16;5070033;28;20269;-71
2022/05/20 02:57:55;;;;;;;0.00;0.00;;;;;;;14.72;100.00;100880.69;5070994;28;20185;-71
2022/05/20 03:05:50;;;;;;;1.17;1.17;;;;;;;14.53;100.00;100888.53;5071348;28;20181;-70
2022/05/20 03:08:16;;;;;;;0.33;0.33;;;;;;;14.52;100.00;100889.66;5070519;28;20190;-71
2022/05/20 03:10:41;;;;;;;0.10;0.10;;;;;;;14.55;100.00;100889.00;5070790;28;20213;-71
2022/05/20 03:13:07;;;;;;;0.40;0.40;;;;;;;14.54;100.00;100895.63;5070745;28;20224;-71
2022/05/20 03:15:33;;;;;;;0.10;0.10;;;;;;;14.48;100.00;100892.28;5070816;28;20175;-71
2022/05/20 03:17:59;;;;;;;0.37;0.37;;;;;;;14.48;100.00;100899.72;5071103;28;20193;-71
2022/05/20 03:20:25;;;;;;;0.43;0.43;;;;;;;14.48;100.00;100903.25;5071203;28;20626;-71
2022/05/20 03:22:50;;;;;;;1.70;1.60;;;;;;;14.48;100.00;100907.97;5071128;28;20170;-71
2022/05/20 03:25:16;;;;;;;0.27;0.27;;;;;;;14.48;100.00;100907.97;5071322;28;20271;-71
2022/05/20 03:27:41;;;;;;;0.63;0.63;;;;;;;14.50;100.00;100913.94;5071448;28;20178;-71
2022/05/20 03:30:09;;;;;;;0.57;0.57;;;;;;;14.47;100.00;100911.84;5071282;28;20178;-71
2022/05/20 03:32:34;;;;;;;0.13;0.13;;;;;;;14.51;100.00;100921.84;5071504;28;20170;-71
2022/05/20 03:35:00;;;;;;;1.37;1.27;;;;;;;14.45;100.00;100920.38;5071343;28;20174;-71
2022/05/20 03:37:26;;;;;;;3.97;3.67;;;;;;;14.40;100.00;100920.53;5071031;28;20227;-71
2022/05/20 03:39:52;;;;;;;19.90;4.10;;;;;;;14.39;100.00;100920.88;5071417;28;20240;-71
2022/05/20 03:42:19;;;;;;;1.23;0.93;;;;;;;14.35;100.00;100919.91;5070932;28;20818;-71
2022/05/20 03:44:44;;;;;;;2.33;2.13;;;;;;;14.26;100.00;100931.69;5070430;28;20830;-71
2022/05/20 03:47:09;;;;;;;1.73;1.57;;;;;;;14.22;100.00;100933.50;5070724;28;20167;-71
2022/05/20 03:49:35;;;;;;;13.47;5.63;;;;;;;14.20;100.00;100932.19;5071053;28;20587;-71
2022/05/20 03:52:00;;;;;;;3.23;3.13;;;;;;;14.16;100.00;100929.28;5073645;28;20166;-71
2022/05/20 03:54:30;;;;;;;3.23;2.93;;;;;;;14.18;100.00;100943.53;5075206;28;20249;-72
2022/05/20 03:56:55;;;;;;;1.17;1.17;;;;;;;14.16;100.00;100943.00;5075004;28;20169;-71
2022/05/20 03:59:20;;;;;;;2.43;1.63;;;;;;;14.18;100.00;100946.28;5074994;28;20171;-72
2022/05/20 04:01:58;;;;;;;1.97;1.87;;;;;;;14.17;100.00;100957.56;5074862;28;20174;-72
2022/05/20 04:04:28;;;;;;;4.30;0.97;;;;;;;14.19;100.00;100950.63;5074662;28;20225;-71
2022/05/20 04:06:53;;;;;;;0.00;0.00;;;;;;;14.24;100.00;100952.41;5074822;28;20163;-71
2022/05/20 04:09:19;;;;;;;6.37;3.10;;;;;;;14.25;100.00;100952.06;5074462;28;20166;-72
2022/05/20 04:11:45;;;;;;;0.93;0.93;;;;;;;14.26;100.00;100956.44;5074441;28;20652;-72
2022/05/20 04:14:10;;;;;;;0.47;0.47;;;;;;;14.28;100.00;100965.16;5075096;28;20175;-72
2022/05/20 04:16:36;;;;;;;0.47;0.47;;;;;;;14.36;100.00;100957.25;5074641;28;20253;-71
2022/05/20 04:19:01;;;;;;;0.30;0.30;;;;;;;14.41;100.00;100965.34;5074704;28;20544;-72
2022/05/20 04:21:26;;;;;;;1.27;1.27;;;;;;;14.38;100.00;100974.22;5074714;28;20451;-71
2022/05/20 04:23:52;;;;;;;0.00;0.00;;;;;;;14.37;100.00;100970.69;5074522;28;20208;-71
2022/05/20 04:26:17;;;;;;;0.00;0.00;;;;;;;14.42;100.00;100966.94;5074682;28;20191;-72
2022/05/20 04:28:43;;;;;;;0.00;0.00;;;;;;;14.41;100.00;100970.81;5074049;28;20578;-72
2022/05/20 04:31:11;;;;;;;0.40;0.40;;;;;;;14.42;100.00;100973.25;5074480;28;20171;-71
2022/05/20 04:33:37;;;;;;;1.50;1.40;;;;;;;14.37;100.00;100978.94;5074241;28;20181;-72
2022/05/20 04:36:04;;;;;;;0.63;0.63;;;;;;;14.24;100.00;100980.69;5074049;28;20170;-71
2022/05/20 04:38:31;;;;;;;3.23;3.03;;;;;;;14.12;100.00;100986.00;5074298;28;20267;-71
2022/05/20 04:49:09;;;;;;;0.47;0.13;;;;;;;14.09;100.00;100978.44;5072962;28;20189;-71
2022/05/20 04:51:39;;;;;;;1.63;1.03;;;;;;;14.15;100.00;100979.88;5072913;28;20446;-71
2022/05/20 04:56:50;;;;;;;1.10;1.10;;;;;;;14.27;100.00;100984.72;5072669;28;20181;-71
2022/05/20 04:59:16;;;;;;;2.60;2.47;;;;;;;14.33;100.00;100985.41;5072268;28;20175;-71
2022/05/20 05:01:42;;;;;;;0.20;0.20;;;;;;;14.33;100.00;100986.22;5071966;28;20171;-73
2022/05/20 05:04:07;;;;;;;3.30;2.40;;;;;;;14.40;100.00;100988.47;5072087;28;20213;-72
2022/05/20 05:06:33;;;;;;;0.40;0.40;;;;;;;14.38;100.00;100991.53;5072803;28;20181;-72
2022/05/20 05:08:59;;;;;;;0.30;0.30;;;;;;;14.43;100.00;100985.06;5069624;28;20598;-73
2022/05/20 05:11:25;;;;;;;0.00;0.00;;;;;;;14.51;100.00;100987.03;5072549;28;20170;-71
2022/05/20 05:13:50;;;;;;;1.60;1.50;;;;;;;14.53;100.00;100993.00;5072502;28;20550;-71
2022/05/20 05:16:15;;;;;;;1.10;1.10;;;;;;;14.47;100.00;100986.06;5072520;28;20341;-72
2022/05/20 05:18:40;;;;;;;0.13;0.13;;;;;;;14.44;100.00;100984.75;5072295;28;20605;-71
2022/05/20 05:21:06;;;;;;;2.27;1.47;;;;;;;14.43;100.00;100987.81;5072677;28;20175;-72
2022/05/20 05:23:31;;;;;;;0.83;0.83;;;;;;;14.43;100.00;100985.88;5072055;28;20198;-72
2022/05/20 05:25:57;;;;;;;0.00;0.00;;;;;;;14.51;100.00;100985.09;5072030;28;20594;-72
2022/05/20 05:28:22;;;;;;;0.93;0.77;;;;;;;14.53;100.00;100982.00;5072090;28;20171;-71
2022/05/20 05:30:50;;;;;;;1.80;1.27;;;;;;;14.50;100.00;100983.47;5072023;28;20189;-73
2022/05/20 05:33:16;;;;;;;0.87;0.87;;;;;;;14.56;100.00;100986.88;5072222;28;20200;-71
2022/05/20 05:35:42;;;;;;;0.70;0.70;;;;;;;14.58;100.00;100987.34;5072046;28;20399;-72
2022/05/20 05:38:07;;;;;;;0.50;0.50;;;;;;;14.51;100.00;100982.34;5072060;28;20178;-71
2022/05/20 05:40:33;;;;;;;0.00;0.00;;;;;;;14.55;100.00;100991.56;5072201;28;20167;-71
2022/05/20 05:43:00;;;;;;;2.25;2.08;;;;;;;14.61;100.00;100997.72;5047435;28;1100114;-71
2022/05/20 05:45:27;;;;;;;0.00;0.00;;;;;;;14.70;100.00;100994.94;5073024;28;20732;-72
2022/05/20 05:47:56;;;;;;;0.73;0.73;;;;;;;14.69;100.00;100999.63;5072545;28;20177;-72
2022/05/20 05:50:22;;;;;;;0.53;0.53;;;;;;;14.75;100.00;100992.81;5072854;28;20205;-72
2022/05/20 05:52:58;;;;;;;8.70;8.00;;;;;;;14.84;100.00;100981.81;5072644;28;20206;-72
2022/05/20 05:55:24;;;;;;;0.60;0.60;;;;;;;14.90;99.75;100994.28;5072455;28;20171;-72
2022/05/20 05:57:49;;;;;;;0.00;0.00;;;;;;;14.93;98.81;100996.38;5072445;28;20688;-73
2022/05/20 06:00:15;;;;;;;0.73;0.73;;;;;;;14.99;98.50;101005.25;5072684;28;20170;-72
2022/05/20 06:02:40;;;;;;;3.70;1.60;;;;;;;14.93;96.71;101004.63;5072705;28;20163;-72
2022/05/20 06:05:06;;;;;;;2.60;2.50;;;;;;;14.97;97.03;101007.53;5072522;28;20757;-72
2022/05/20 06:07:31;;;;;;;1.73;1.20;;;;;;;14.98;97.00;101004.44;5072196;28;20236;-71
2022/05/20 06:09:57;;;;;;;3.43;3.13;;;;;;;15.00;97.53;101012.38;5071045;28;20174;-72
2022/05/20 06:12:22;;;;;;;0.30;0.30;;;;;;;15.00;96.79;101013.16;5069731;28;20174;-72
2022/05/20 06:14:47;;;;;;;0.97;0.97;;;;;;;14.91;95.13;101004.16;5070986;28;20224;-72
2022/05/20 06:17:13;;;;;;;1.30;1.20;;;;;;;14.90;95.79;101005.28;5072322;28;20177;-73
2022/05/20 06:19:42;;;;;;;0.77;0.77;;;;;;;14.95;96.05;101001.53;5071792;28;20210;-72
2022/05/20 06:22:09;;;;;;;0.73;0.73;;;;;;;15.01;95.80;101002.97;5071784;28;20696;-74
2022/05/20 06:24:35;;;;;;;0.63;0.63;;;;;;;15.13;95.78;101009.41;5071742;28;20202;-72
2022/05/20 06:27:01;;;;;;;0.50;0.50;;;;;;;15.22;95.19;101014.09;5071701;28;20178;-72
2022/05/20 06:29:27;;;;;;;0.00;0.00;;;;;;;15.18;94.65;101009.22;5069733;28;20240;-74
2022/05/20 06:31:55;;;;;;;3.90;2.03;;;;;;;15.21;95.57;101009.75;5070898;28;20566;-72
2022/05/20 06:34:21;;;;;;;1.83;1.73;;;;;;;15.23;95.85;101010.22;5071167;28;20591;-72
2022/05/20 06:42:14;;;;;;;0.00;0.00;;;;;;;15.42;93.38;101007.88;5070103;28;20208;-73
2022/05/20 06:44:39;;;;;;;0.53;0.53;;;;;;;15.46;91.92;100993.09;5070939;28;20214;-73
2022/05/20 06:47:05;;;;;;;0.00;0.00;;;;;;;15.45;91.84;100996.19;5071245;28;20253;-73
2022/05/20 06:49:31;;;;;;;1.50;1.50;;;;;;;15.51;90.73;100994.06;5071300;28;20692;-73
2022/05/20 06:51:56;;;;;;;0.33;0.33;;;;;;;15.60;90.51;100992.09;5071253;28;20174;-73
2022/05/20 06:54:23;;;;;;;0.00;0.00;;;;;;;15.56;89.21;100991.94;5071597;28;20549;-73
2022/05/20 06:56:48;;;;;;;2.13;2.00;;;;;;;15.61;89.87;100988.19;5071287;28;20265;-73
2022/05/20 06:59:14;;;;;;;1.53;1.43;;;;;;;15.59;89.39;100994.03;5071125;28;20637;-73
2022/05/20 07:01:39;;;;;;;0.17;0.17;;;;;;;15.61;90.33;100988.19;5071799;28;20183;-73
2022/05/20 07:04:06;;;;;;;0.83;0.83;;;;;;;15.62;89.52;100989.81;5071472;28;20198;-73
2022/05/20 07:06:32;;;;;;;6.57;0.97;;;;;;;15.59;88.95;100979.44;5071115;28;20187;-73
2022/05/20 07:08:58;;;;;;;0.50;0.50;;;;;;;15.68;89.49;100975.53;5070969;28;20276;-73
2022/05/20 07:11:25;;;;;;;4.20;3.90;;;;;;;15.61;88.16;100982.69;5070957;28;20178;-73
2022/05/20 07:13:55;;;;;;;0.07;0.07;;;;;;;15.65;88.67;100978.16;5071053;28;20260;-73
2022/05/20 07:16:22;;;;;;;3.60;2.13;;;;;;;15.67;88.63;100973.13;5070889;28;20625;-73
2022/05/20 07:18:47;;;;;;;0.00;0.00;;;;;;;15.79;89.87;100973.22;5070714;28;20178;-73
2022/05/20 07:21:13;;;;;;;0.00;0.00;;;;;;;15.89;89.01;100978.31;5071245;28;20174;-72
2022/05/20 07:23:39;;;;;;;0.27;0.27;;;;;;;15.95;87.58;100974.25;5070776;28;20194;-73
2022/05/20 07:26:05;;;;;;;0.17;0.17;;;;;;;15.93;87.01;100964.69;5070863;28;20184;-72
2022/05/20 07:28:31;;;;;;;0.87;0.87;;;;;;;16.03;87.49;100965.09;5070819;28;20167;-72
2022/05/20 07:30:57;;;;;;;1.77;1.67;;;;;;;16.03;86.15;100965.09;5071050;28;20609;-71
2022/05/20 07:33:22;;;;;;;0.60;0.60;;;;;;;15.96;86.69;100958.50;5071012;28;20247;-72
2022/05/20 07:35:48;;;;;;;1.03;1.03;;;;;;;16.05;87.97;100960.03;5071270;28;20181;-71
2022/05/20 07:38:13;;;;;;;2.10;2.00;;;;;;;15.90;85.57;100952.38;5070021;28;20580;-71
2022/05/20 07:40:39;;;;;;;0.83;0.83;;;;;;;15.84;86.16;100950.97;5070186;28;20167;-71
2022/05/20 07:43:04;;;;;;;0.00;0.00;;;;;;;15.90;87.28;100944.09;5070344;28;20228;-71
2022/05/20 07:45:29;;;;;;;0.37;0.37;;;;;;;16.06;87.04;100947.91;5070253;28;20565;-71
2022/05/20 07:47:55;;;;;;;0.00;0.00;;;;;;;16.17;86.47;100950.25;5069929;28;20614;-72
2022/05/20 07:50:20;;;;;;;0.67;0.67;;;;;;;16.25;86.59;100944.66;5070251;28;20174;-71
2022/05/20 07:55:37;;;;;;;3.57;3.27;;;;;;;16.23;85.69;100937.88;5070414;28;20185;-72
2022/05/20 07:58:05;;;;;;;1.13;1.03;;;;;;;16.18;85.52;100943.56;5069945;28;20195;-71
2022/05/20 08:00:32;;;;;;;0.10;0.10;;;;;;;16.28;85.81;100945.94;5070420;28;20523;-72
2022/05/20 08:03:00;;;;;;;1.90;1.80;;;;;;;16.34;86.03;100937.09;5070368;28;20231;-71
2022/05/20 08:05:27;;;;;;;0.20;0.20;;;;;;;16.50;85.91;100920.75;5068244;28;20574;-72
2022/05/20 08:08:00;;;;;;;1.03;1.03;;;;;;;16.64;85.31;100920.47;5068256;28;20262;-72
2022/05/20 08:10:27;;;;;;;1.30;0.33;;;;;;;16.66;83.22;100929.19;5070621;28;20165;-72
2022/05/20 08:12:53;;;;;;;0.00;0.00;;;;;;;16.66;82.69;100918.16;5070629;28;20692;-72
2022/05/20 08:15:18;;;;;;;0.00;0.00;;;;;;;16.62;81.94;100919.97;5070564;28;20183;-73
2022/05/20 08:17:44;;;;;;;0.00;0.00;;;;;;;16.68;83.13;100915.09;5070166;28;20189;-75
2022/05/20 08:20:25;;;;;;;2.50;2.30;;;;;;;16.72;82.71;100916.81;5068901;28;20213;-72
2022/05/20 08:22:55;;;;;;;1.73;1.63;;;;;;;16.70;82.09;100912.78;5070326;28;20553;-72
2022/05/20 08:25:24;;;;;;;0.97;0.50;;;;;;;16.73;82.10;100914.88;5070284;28;20291;-71
2022/05/20 08:27:49;;;;;;;0.07;0.07;;;;;;;16.86;82.53;100913.75;5069697;28;20304;-71
2022/05/20 08:30:19;;;;;;;0.10;0.10;;;;;;;16.72;80.91;100916.81;5068883;28;20258;-71
2022/05/20 08:32:45;;;;;;;0.00;0.00;;;;;;;16.84;81.02;100905.00;5069716;28;20227;-71
2022/05/20 08:35:11;;;;;;;0.00;0.00;;;;;;;16.78;80.02;100909.13;5070106;28;20178;-71
2022/05/20 08:37:39;;;;;;;1.80;1.70;;;;;;;16.86;79.83;100906.28;5071413;28;20612;-71
2022/05/20 08:40:08;;;;;;;2.67;2.50;;;;;;;16.97;80.75;100909.41;5073115;28;20163;-71
2022/05/20 08:42:33;;;;;;;0.00;0.00;;;;;;;17.00;79.00;100905.94;5073339;28;20630;-71
2022/05/20 08:45:02;;;;;;;0.63;0.63;;;;;;;17.13;79.94;100896.53;5073120;28;20209;-72
2022/05/20 08:47:42;;;;;;;0.00;0.00;;;;;;;17.34;79.77;100888.13;5072887;28;20535;-72
2022/05/20 08:50:13;;;;;;;0.10;0.10;;;;;;;17.50;81.39;100890.97;5073244;28;20201;-71
2022/05/20 08:52:39;;;;;;;0.00;0.00;;;;;;;17.59;79.88;100886.13;5073113;28;20173;-72
2022/05/20 08:55:05;;;;;;;2.00;1.87;;;;;;;17.69;78.34;100887.66;5073217;28;20200;-72
2022/05/20 08:57:33;;;;;;;2.20;2.07;;;;;;;17.75;78.29;100897.31;5072579;28;20206;-71
2022/05/20 09:00:00;;;;;;;1.30;1.30;;;;;;;17.83;78.17;100899.16;5073067;28;20189;-72
2022/05/20 09:02:26;;;;;;;0.00;0.00;;;;;;;17.84;77.06;100895.22;5072904;28;20171;-72
2022/05/20 09:04:51;;;;;;;0.00;0.00;;;;;;;18.05;77.71;100890.31;5072793;28;20201;-71
2022/05/20 09:07:19;;;;;;;0.23;0.23;;;;;;;18.07;75.08;100888.00;5072961;28;20261;-71
2022/05/20 09:09:47;;;;;;;2.10;2.00;;;;;;;18.20;76.74;100897.06;5072825;28;20171;-71
2022/05/20 09:12:37;;;;;;;1.33;1.20;;;;;;;18.06;76.65;100894.69;5072865;28;20178;-71
2022/05/20 09:18:00;;;;;;;0.73;0.43;;;;;;;18.02;77.75;100876.38;5072623;28;20177;-72
2022/05/20 09:20:26;;;;;;;0.73;0.73;;;;;;;18.26;78.72;100878.25;5072673;28;20174;-72
2022/05/20 09:23:02;;;;;;;7.00;6.50;;;;;;;18.23;77.34;100865.94;5072941;28;20585;-72
2022/05/20 09:25:32;;;;;;;0.00;0.00;;;;;;;18.28;77.95;100862.91;5072380;28;20206;-71
2022/05/20 09:28:29;;;;;;;2.47;2.37;;;;;;;18.55;77.76;100857.72;5072124;28;20167;-72
2022/05/20 09:31:04;;;;;;;1.63;1.53;;;;;;;18.84;78.70;100853.75;5068294;28;20187;-72
2022/05/20 09:33:33;;;;;;;4.67;4.13;;;;;;;19.03;78.96;100849.09;5071202;28;20179;-72
2022/05/20 09:36:01;;;;;;;5.73;4.30;;;;;;;18.99;77.04;100845.44;5072178;28;20653;-72
2022/05/20 09:38:34;;;;;;;0.73;0.73;;;;;;;18.93;74.12;100826.66;5071782;28;20187;-71
2022/05/20 09:41:09;;;;;;;1.40;1.40;;;;;;;19.07;75.98;100824.22;5072213;28;20695;-72
2022/05/20 09:43:41;;;;;;;0.00;0.00;;;;;;;19.35;76.63;100813.00;5072248;28;20266;-71
2022/05/20 09:46:29;;;;;;;2.37;2.27;;;;;;;19.52;75.15;100811.78;5071693;28;20715;-72
2022/05/20 09:49:04;;;;;;;1.37;1.37;;;;;;;19.53;72.98;100803.13;5070518;28;20174;-71
2022/05/20 09:51:40;;;;;;;0.00;0.00;;;;;;;19.53;72.65;100799.56;5071999;28;20193;-72
2022/05/20 09:54:34;;;;;;;0.00;0.00;;;;;;;19.72;71.95;100791.28;5071922;28;20196;-72
2022/05/20 09:57:21;;;;;;;0.33;0.33;;;;;;;19.95;71.83;100791.31;5069953;28;20191;-71
2022/05/20 10:00:04;;;;;;;1.63;1.53;;;;;;;20.31;72.38;100795.59;5071913;28;20175;-72
2022/05/20 10:02:30;;;;;;;0.00;0.00;;;;;;;20.23;68.40;100781.94;5071793;28;20194;-71
2022/05/20 10:05:23;;;;;;;0.03;0.03;;;;;;;20.36;69.99;100778.63;5071727;28;20207;-71
2022/05/20 10:07:54;;;;;;;0.00;0.00;;;;;;;20.39;66.69;100777.06;5071381;28;20171;-71
2022/05/20 10:10:33;;;;;;;0.20;0.20;;;;;;;20.62;67.63;100768.78;5071626;28;20167;-72
2022/05/20 10:13:02;;;;;;;0.00;0.00;;;;;;;20.69;65.61;100764.16;5071647;28;20444;-72
2022/05/20 10:15:38;;;;;;;0.00;0.00;;;;;;;20.63;65.30;100751.75;5071629;28;20183;-71
2022/05/20 10:18:39;;;;;;;0.10;0.10;;;;;;;20.62;66.03;100741.03;5071268;28;20178;-72
2022/05/20 10:21:26;;;;;;;0.00;0.00;;;;;;;21.04;64.81;100740.88;5071778;28;20444;-72
2022/05/20 10:24:19;;;;;;;16.63;1.63;;;;;;;20.63;64.72;100728.75;5071425;28;20271;-71
2022/05/20 10:26:57;;;;;;;0.00;0.00;;;;;;;20.85;65.50;100727.91;5071177;28;20528;-72
2022/05/20 10:32:36;;;;;;;0.00;0.00;;;;;;;20.97;62.35;100721.31;5064044;28;20190;-71
2022/05/20 10:35:06;;;;;;;0.20;0.20;;;;;;;21.14;64.09;100719.97;5067960;28;20191;-73
2022/05/20 10:38:12;;;;;;;0.60;0.60;;;;;;;21.31;63.09;100725.00;5070130;28;20183;-72
2022/05/20 10:40:50;;;;;;;0.00;0.00;;;;;;;21.24;60.64;100722.09;5054161;28;20193;-72
2022/05/20 10:49:45;;;;;;;0.33;0.33;;;;;;;21.58;60.11;100722.97;5071311;28;20172;-72
2022/05/20 10:52:38;;;;;;;0.40;0.40;;;;;;;21.64;60.10;100725.00;5067072;28;20194;-72
2022/05/20 10:55:39;;;;;;;0.20;0.20;;;;;;;21.60;61.27;100726.94;5070773;28;20513;-72
2022/05/20 10:58:23;;;;;;;0.00;0.00;;;;;;;21.48;61.49;100727.19;5027021;28;20262;-72
2022/05/20 11:00:51;;;;;;;4.67;1.47;;;;;;;21.48;61.74;100724.41;5070259;28;20300;-72
2022/05/20 11:03:28;;;;;;;0.77;0.67;;;;;;;21.33;60.61;100726.22;5070645;28;20186;-72
2022/05/20 11:05:53;;;;;;;1.10;0.83;;;;;;;21.33;61.76;100723.44;5069014;28;20217;-72
2022/05/20 11:08:37;;;;;;;0.87;0.87;;;;;;;21.20;61.15;100721.25;5069799;28;20227;-72
2022/05/20 11:11:24;;;;;;;0.40;0.30;;;;;;;21.14;60.51;100704.09;5066094;28;20651;-72
2022/05/20 11:14:08;;;;;;;1.77;0.27;;;;;;;21.31;60.13;100700.78;5071275;28;20202;-72
2022/05/20 11:16:52;;;;;;;0.00;0.00;;;;;;;21.50;59.38;100688.69;5071113;28;20266;-72
2022/05/20 11:19:23;;;;;;;0.33;0.33;;;;;;;21.87;59.96;100677.59;5071234;28;20259;-73
2022/05/20 11:22:19;;;;;;;0.30;0.30;;;;;;;21.99;59.64;100673.72;5071394;28;20167;-72
2022/05/20 11:24:44;;;;;;;0.43;0.43;;;;;;;21.93;60.32;100664.91;5071207;28;20339;-72
2022/05/20 11:27:28;;;;;;;0.00;0.00;;;;;;;21.93;61.38;100673.25;5071289;28;20635;-72
2022/05/20 11:29:53;;;;;;;0.93;0.20;;;;;;;22.15;61.08;100654.03;5071409;28;20173;-72
2022/05/20 11:32:46;;;;;;;0.00;0.00;;;;;;;22.32;60.42;100652.56;5071020;28;20177;-72
2022/05/20 11:35:59;;;;;;;0.73;0.73;;;;;;;22.34;62.06;100644.63;5071009;28;20263;-72
2022/05/20 11:38:40;;;;;;;16.83;1.57;;;;;;;22.36;63.11;100643.03;5071081;28;20170;-72
2022/05/20 11:41:28;;;;;;;1.00;1.00;;;;;;;22.38;63.32;100637.88;5071338;28;20244;-72
2022/05/20 11:44:29;;;;;;;0.00;0.00;;;;;;;22.40;63.17;100629.94;5070853;28;20209;-71
2022/05/20 11:47:39;;;;;;;0.20;0.20;;;;;;;22.36;62.32;100620.75;5066697;28;20197;-72
2022/05/20 11:50:49;;;;;;;0.00;0.00;;;;;;;22.41;63.20;100616.81;5068581;28;20269;-72
2022/05/20 11:53:41;;;;;;;0.50;0.50;;;;;;;22.61;62.00;100603.44;5071465;28;20162;-72
2022/05/20 11:56:34;;;;;;;0.00;0.00;;;;;;;22.78;60.44;100586.00;5070871;28;20216;-72
2022/05/20 11:59:12;;;;;;;0.00;0.00;;;;;;;23.05;60.96;100583.75;5070683;28;20181;-72
2022/05/20 12:01:38;;;;;;;0.00;0.00;;;;;;;23.48;61.38;100565.16;5070940;28;20204;-72
2022/05/20 12:04:06;;;;;;;0.37;0.37;;;;;;;23.13;59.35;100568.63;5070747;28;20221;-72
2022/05/20 12:06:41;;;;;;;0.10;0.10;;;;;;;22.67;59.71;100555.31;5070796;28;20220;-72
2022/05/20 12:09:27;;;;;;;0.00;0.00;;;;;;;23.07;59.65;100554.28;5070975;28;20225;-72
2022/05/20 12:12:11;;;;;;;0.30;0.30;;;;;;;22.77;60.12;100545.41;5071229;28;20642;-72
2022/05/20 12:14:58;;;;;;;0.00;0.00;;;;;;;23.37;62.21;100533.66;5074304;28;20561;-72
2022/05/20 12:17:49;;;;;;;0.40;0.40;;;;;;;22.62;59.44;100525.03;5073978;28;20174;-72